Time;durP1;ratioP1;P1;durP2;ratioP2;P2;SDS_P1;SDS_P2;PMS_P1;PMS_P2;Temp;Humidity;BMP_temperature;BMP_pressure;BME280_temperature;BME280_humidity;BME280_pressure;Samples;Min_cycle;Max_cycle;Signal;HPM_P1;HPM_P2
2023/10/29 00:01:08;;;;;;;;;;;;;;;16.45;55.32;99429.03;3166638;28;20014;-74
2023/10/29 00:02:41;;;;;;;;;;;;;;;16.45;55.28;99438.72;3166573;28;19924;-73
2023/10/29 00:04:11;;;;;;;;;;;;;;;16.45;55.21;99433.44;3154109;28;19925;-73
2023/10/29 00:05:43;;;;;;;;;;;;;;;16.44;55.07;99434.38;3161047;28;19938;-73
2023/10/29 00:07:14;;;;;;;;;;;;;;;16.41;55.25;99440.69;3166471;28;19939;-73
2023/10/29 00:08:45;;;;;;;;;;;;;;;16.34;55.43;99440.34;3166880;28;19970;-74
2023/10/29 00:10:17;;;;;;;;;;;;;;;16.30;55.57;99449.41;3166654;28;20332;-69
2023/10/29 00:11:48;;;;;;;;;;;;;;;16.26;55.72;99450.56;3166002;28;20468;-73
2023/10/29 00:13:19;;;;;;;;;;;;;;;16.22;55.85;99453.56;3161941;28;19923;-75
2023/10/29 00:14:50;;;;;;;;;;;;;;;16.20;55.79;99456.28;3166390;28;19931;-74
2023/10/29 00:16:21;;;;;;;;;;;;;;;16.19;55.88;99461.66;3166789;28;19976;-74
2023/10/29 00:17:54;;;;;;;;;;;;;;;16.18;55.91;99462.59;3166860;28;20219;-74
2023/10/29 00:19:25;;;;;;;;;;;;;;;16.17;55.71;99467.03;3163269;28;19924;-73
2023/10/29 00:20:57;;;;;;;;;;;;;;;16.17;55.86;99474.06;3166786;28;19985;-73
2023/10/29 00:22:27;;;;;;;;;;;;;;;16.14;56.04;99475.97;3149852;28;19977;-74
2023/10/29 00:23:59;;;;;;;;;;;;;;;16.15;55.83;99474.19;3147608;28;20393;-73
2023/10/29 00:25:30;;;;;;;;;;;;;;;16.13;55.75;99476.91;3160553;28;20064;-73
2023/10/29 00:27:01;;;;;;;;;;;;;;;16.11;56.01;99475.34;3166670;28;19938;-74
2023/10/29 00:28:32;;;;;;;;;;;;;;;16.08;56.26;99473.78;3161851;28;19929;-73
2023/10/29 00:30:04;;;;;;;;;;;;;;;16.07;56.09;99480.00;3166314;28;20405;-74
2023/10/29 00:31:34;;;;;;;;;;;;;;;16.06;56.00;99480.09;3166387;28;19953;-73
2023/10/29 00:33:07;;;;;;;;;;;;;;;16.04;56.15;99482.84;3166400;28;19924;-73
2023/10/29 00:34:38;;;;;;;;;;;;;;;16.00;56.37;99486.66;3166346;28;19924;-74
2023/10/29 00:36:10;;;;;;;;;;;;;;;15.98;56.46;99483.28;3166294;28;19923;-73
2023/10/29 00:37:40;;;;;;;;;;;;;;;15.97;56.40;99494.72;3166374;28;19957;-74
2023/10/29 00:39:12;;;;;;;;;;;;;;;15.95;56.47;99499.28;3165154;28;19967;-73
2023/10/29 00:40:42;;;;;;;;;;;;;;;15.91;56.63;99489.94;3142607;28;19954;-73
2023/10/29 00:42:14;;;;;;;;;;;;;;;15.85;56.95;99500.88;3148717;28;20516;-73
2023/10/29 00:43:46;;;;;;;;;;;;;;;15.76;57.17;99501.53;3166687;28;20306;-74
2023/10/29 00:45:16;;;;;;;;;;;;;;;15.70;57.30;99502.81;3165821;28;19924;-69
2023/10/29 00:46:48;;;;;;;;;;;;;;;15.63;57.55;99509.41;3166275;28;20488;-73
2023/10/29 00:48:20;;;;;;;;;;;;;;;15.56;57.90;99501.16;3164486;28;19923;-74
2023/10/29 00:49:52;;;;;;;;;;;;;;;15.53;58.09;99511.00;3163796;28;19924;-73
2023/10/29 00:51:23;;;;;;;;;;;;;;;15.50;58.15;99509.47;3160102;28;19924;-73
2023/10/29 00:52:55;;;;;;;;;;;;;;;15.47;58.36;99507.88;3150261;28;19974;-73
2023/10/29 00:54:26;;;;;;;;;;;;;;;15.41;58.50;99510.94;3156631;28;19923;-74
2023/10/29 00:55:58;;;;;;;;;;;;;;;15.37;58.78;99508.63;3166380;28;20735;-74
2023/10/29 00:57:31;;;;;;;;;;;;;;;15.29;58.91;99503.88;3161067;28;19924;-74
2023/10/29 00:59:02;;;;;;;;;;;;;;;15.27;59.18;99502.34;3166313;28;19988;-73
2023/10/29 01:00:33;;;;;;;;;;;;;;;15.24;59.03;99503.38;3165892;28;20369;-73
2023/10/29 01:02:05;;;;;;;;;;;;;;;15.23;58.96;99510.44;3166175;28;19924;-73
2023/10/29 01:03:37;;;;;;;;;;;;;;;15.24;59.05;99506.84;3164715;28;20368;-72
2023/10/29 01:05:09;;;;;;;;;;;;;;;15.26;58.98;99501.47;3152650;28;19928;-73
2023/10/29 01:06:41;;;;;;;;;;;;;;;15.27;58.98;99507.59;3160209;28;19954;-73
2023/10/29 01:08:13;;;;;;;;;;;;;;;15.25;59.14;99505.88;3165914;28;20113;-74
2023/10/29 01:09:46;;;;;;;;;;;;;;;15.22;59.51;99513.13;3166109;28;19930;-73
2023/10/29 01:11:17;;;;;;;;;;;;;;;15.18;59.64;99515.16;3162479;28;19924;-73
2023/10/29 01:12:48;;;;;;;;;;;;;;;15.17;59.70;99516.09;3164521;28;19923;-73
2023/10/29 01:14:20;;;;;;;;;;;;;;;15.14;60.15;99515.44;3165798;28;19923;-73
2023/10/29 01:15:50;;;;;;;;;;;;;;;14.83;59.82;99472.97;3160884;28;19924;-73
2023/10/29 01:17:23;;;;;;;;;;;;;;;15.11;59.98;99519.13;3162257;28;20323;-73
2023/10/29 01:18:57;;;;;;;;;;;;;;;15.13;59.82;99526.88;3165980;28;20372;-73
2023/10/29 01:20:28;;;;;;;;;;;;;;;15.15;59.71;99522.38;3162296;28;19935;-73
2023/10/29 01:21:59;;;;;;;;;;;;;;;15.16;59.71;99524.88;3152825;28;19924;-73
2023/10/29 01:23:31;;;;;;;;;;;;;;;15.17;59.49;99520.47;3155823;28;19985;-73
2023/10/29 01:25:05;;;;;;;;;;;;;;;15.17;59.64;99517.84;3158943;28;20348;-73
2023/10/29 01:26:37;;;;;;;;;;;;;;;15.18;59.91;99516.94;3161117;28;20593;-73
2023/10/29 01:28:08;;;;;;;;;;;;;;;15.17;59.67;99525.72;3165956;28;19927;-73
2023/10/29 01:29:39;;;;;;;;;;;;;;;15.16;59.55;99527.50;3165819;28;19943;-74
2023/10/29 01:31:10;;;;;;;;;;;;;;;15.15;59.79;99512.72;3165084;28;19989;-73
2023/10/29 01:32:42;;;;;;;;;;;;;;;15.15;59.51;99517.97;3166096;28;19939;-73
2023/10/29 01:34:17;;;;;;;;;;;;;;;15.13;59.57;99512.00;3165720;28;19943;-73
2023/10/29 01:35:47;;;;;;;;;;;;;;;15.12;59.76;99515.56;3165699;28;19923;-73
2023/10/29 01:37:19;;;;;;;;;;;;;;;15.12;59.98;99510.31;3165810;28;19966;-73
2023/10/29 01:38:50;;;;;;;;;;;;;;;15.11;60.09;99513.03;3165557;28;19980;-73
2023/10/29 01:40:21;;;;;;;;;;;;;;;15.11;59.98;99513.03;3160874;28;19924;-73
2023/10/29 01:41:55;;;;;;;;;;;;;;;15.09;60.06;99507.91;3164062;28;19952;-73
2023/10/29 01:43:26;;;;;;;;;;;;;;;15.08;59.92;99513.25;3165519;28;19923;-73
2023/10/29 01:44:58;;;;;;;;;;;;;;;15.07;60.04;99515.03;3165658;28;20367;-75
2023/10/29 01:46:28;;;;;;;;;;;;;;;15.06;59.70;99523.84;3165344;28;19923;-74
2023/10/29 01:48:00;;;;;;;;;;;;;;;15.05;59.82;99522.16;3164758;28;19924;-74
2023/10/29 01:49:33;;;;;;;;;;;;;;;15.05;59.75;99522.16;3161191;28;19996;-74
2023/10/29 01:51:05;;;;;;;;;;;;;;;15.04;59.81;99520.50;3163441;28;20033;-74
2023/10/29 01:52:36;;;;;;;;;;;;;;;15.01;60.11;99524.16;3148797;28;19981;-74
2023/10/29 01:54:07;;;;;;;;;;;;;;;14.99;60.03;99525.19;3153209;28;20388;-74
2023/10/29 01:55:38;;;;;;;;;;;;;;;14.97;60.05;99525.31;3160644;28;20036;-74
2023/10/29 01:57:10;;;;;;;;;;;;;;;14.96;60.16;99528.88;3161177;28;20611;-74
2023/10/29 01:58:40;;;;;;;;;;;;;;;14.95;60.19;99521.94;3165452;28;20172;-74
2023/10/29 02:00:13;;;;;;;;;;;;;;;14.95;59.97;99527.19;3165081;28;20392;-73
2023/10/29 02:01:43;;;;;;;;;;;;;;;14.96;60.25;99522.78;3165509;28;19924;-74
2023/10/29 02:03:15;;;;;;;;;;;;;;;14.95;60.31;99526.34;3165661;28;19986;-74
2023/10/29 02:04:47;;;;;;;;;;;;;;;14.96;60.00;99528.03;3154199;28;19928;-73
2023/10/29 02:06:18;;;;;;;;;;;;;;;14.95;60.26;99526.34;3163808;28;19973;-73
2023/10/29 02:07:50;;;;;;;;;;;;;;;14.96;60.32;99530.66;3164961;28;20471;-73
2023/10/29 02:09:21;;;;;;;;;;;;;;;14.96;60.35;99530.66;3164571;28;19924;-73
2023/10/29 02:10:52;;;;;;;;;;;;;;;14.95;60.40;99534.22;3161553;28;19924;-73
2023/10/29 02:12:24;;;;;;;;;;;;;;;14.95;60.23;99540.31;3157147;28;19924;-73
2023/10/29 02:13:54;;;;;;;;;;;;;;;14.95;60.48;99531.59;3159977;28;20051;-73
2023/10/29 02:15:26;;;;;;;;;;;;;;;14.94;60.38;99533.38;3164580;28;19924;-73
2023/10/29 02:16:57;;;;;;;;;;;;;;;14.93;60.54;99536.09;3158648;28;19927;-73
2023/10/29 02:18:28;;;;;;;;;;;;;;;14.92;60.69;99537.88;3165189;27;20654;-73
2023/10/29 02:20:01;;;;;;;;;;;;;;;14.91;60.72;99535.38;3165475;28;20010;-73
2023/10/29 02:21:33;;;;;;;;;;;;;;;14.91;60.86;99538.00;3160501;28;19931;-74
2023/10/29 02:23:06;;;;;;;;;;;;;;;14.91;60.99;99535.38;3151563;28;19931;-72
2023/10/29 02:24:37;;;;;;;;;;;;;;;14.89;60.67;99534.63;3160865;28;19935;-74
2023/10/29 02:26:09;;;;;;;;;;;;;;;14.90;60.70;99536.31;3165234;28;19923;-73
2023/10/29 02:27:39;;;;;;;;;;;;;;;14.90;60.87;99546.78;3165149;28;19980;-73
2023/10/29 02:29:11;;;;;;;;;;;;;;;14.90;61.01;99537.16;3165487;28;19923;-73
2023/10/29 02:30:41;;;;;;;;;;;;;;;14.91;61.11;99543.25;3165097;28;19924;-72
2023/10/29 02:32:13;;;;;;;;;;;;;;;14.91;60.99;99544.09;3164599;28;19923;-73
2023/10/29 02:33:44;;;;;;;;;;;;;;;14.91;60.92;99546.72;3165201;28;19989;-73
2023/10/29 02:35:15;;;;;;;;;;;;;;;14.92;60.99;99550.16;3164874;28;20006;-73
2023/10/29 02:36:46;;;;;;;;;;;;;;;14.92;61.07;99550.16;3164590;28;20033;-72
2023/10/29 02:38:19;;;;;;;;;;;;;;;14.92;60.90;99552.78;3165023;28;19928;-72
2023/10/29 02:39:49;;;;;;;;;;;;;;;14.90;61.25;99555.50;3160971;28;19923;-72
2023/10/29 02:41:21;;;;;;;;;;;;;;;14.89;61.24;99553.81;3156678;28;19924;-72
2023/10/29 02:42:52;;;;;;;;;;;;;;;14.91;61.02;99556.38;3151900;28;19928;-72
2023/10/29 02:44:23;;;;;;;;;;;;;;;14.88;61.19;99553.91;3164656;28;20322;-72
2023/10/29 02:45:54;;;;;;;;;;;;;;;14.85;61.41;99562.00;3164774;28;19927;-72
2023/10/29 02:47:26;;;;;;;;;;;;;;;14.83;61.49;99563.88;3164981;28;20417;-72
2023/10/29 02:48:57;;;;;;;;;;;;;;;14.83;61.26;99561.28;3161328;28;19927;-73
2023/10/29 02:50:28;;;;;;;;;;;;;;;14.84;61.44;99570.81;3164429;28;19927;-72
2023/10/29 02:51:59;;;;;;;;;;;;;;;14.85;61.27;99564.59;3152889;28;19924;-73
2023/10/29 02:53:33;;;;;;;;;;;;;;;14.87;61.31;99570.59;3152728;28;19974;-74
2023/10/29 02:55:05;;;;;;;;;;;;;;;14.89;61.02;99571.34;3165087;28;19984;-72
2023/10/29 02:56:37;;;;;;;;;;;;;;;14.89;60.99;99568.72;3142360;28;19981;-73
2023/10/29 02:58:08;;;;;;;;;;;;;;;14.89;61.01;99571.34;3164101;28;20022;-73
2023/10/29 02:59:39;;;;;;;;;;;;;;;14.89;61.13;99569.56;3164609;28;20576;-72
2023/10/29 03:01:10;;;;;;;;;;;;;;;14.88;61.18;99572.25;3165137;28;19924;-73
2023/10/29 03:02:41;;;;;;;;;;;;;;;14.86;61.38;99575.00;3155280;28;19924;-74
2023/10/29 03:04:12;;;;;;;;;;;;;;;14.85;61.53;99580.34;3158394;28;19942;-73
2023/10/29 03:05:43;;;;;;;;;;;;;;;14.85;61.35;99575.09;3159853;28;19924;-74
2023/10/29 03:07:14;;;;;;;;;;;;;;;14.85;61.34;99577.72;3164626;28;20376;-73
2023/10/29 03:08:47;;;;;;;;;;;;;;;14.87;61.27;99578.47;3164189;28;20062;-72
2023/10/29 03:10:18;;;;;;;;;;;;;;;14.87;61.62;99581.91;3169844;28;19926;-73
2023/10/29 03:11:49;;;;;;;;;;;;;;;14.88;61.70;99583.63;3165522;28;19924;-72
2023/10/29 03:13:21;;;;;;;;;;;;;;;14.88;61.71;99570.50;3160396;28;19945;-72
2023/10/29 03:14:52;;;;;;;;;;;;;;;14.86;61.77;99576.78;3169495;28;19935;-72
2023/10/29 03:16:23;;;;;;;;;;;;;;;14.86;61.77;99579.41;3169880;28;20328;-73
2023/10/29 03:17:54;;;;;;;;;;;;;;;14.83;61.62;99579.63;3170068;28;19924;-72
2023/10/29 03:19:25;;;;;;;;;;;;;;;14.84;61.90;99589.16;3169562;28;20347;-74
2023/10/29 03:20:57;;;;;;;;;;;;;;;14.83;61.58;99590.09;3170156;28;19950;-73
2023/10/29 03:22:27;;;;;;;;;;;;;;;14.83;61.80;99595.34;3151072;28;20324;-73
2023/10/29 03:24:00;;;;;;;;;;;;;;;14.82;61.72;99591.03;3161693;28;19923;-73
2023/10/29 03:25:31;;;;;;;;;;;;;;;14.81;61.84;99595.44;3166574;28;20106;-73
2023/10/29 03:27:02;;;;;;;;;;;;;;;14.80;62.03;99599.00;3169962;28;19925;-73
2023/10/29 03:28:35;;;;;;;;;;;;;;;14.25;61.62;99510.88;3169976;28;20371;-73
2023/10/29 03:30:07;;;;;;;;;;;;;;;14.79;61.61;99603.41;3170089;28;19966;-73
2023/10/29 03:31:38;;;;;;;;;;;;;;;14.78;61.65;99600.88;3168997;28;19931;-73
2023/10/29 03:33:09;;;;;;;;;;;;;;;14.77;61.66;99607.91;3169991;28;19923;-73
2023/10/29 03:34:41;;;;;;;;;;;;;;;14.77;61.74;99613.16;3170184;28;19919;-73
2023/10/29 03:36:12;;;;;;;;;;;;;;;14.76;61.86;99606.25;3165662;28;20393;-68
2023/10/29 03:37:44;;;;;;;;;;;;;;;14.75;61.78;99609.78;3160638;28;19923;-73
2023/10/29 03:39:16;;;;;;;;;;;;;;;14.74;61.82;99608.13;3169715;28;19919;-73
2023/10/29 03:40:47;;;;;;;;;;;;;;;14.71;61.70;99617.97;3170149;28;19963;-73
2023/10/29 03:42:18;;;;;;;;;;;;;;;14.67;61.77;99616.47;3147401;28;19920;-73
2023/10/29 03:43:50;;;;;;;;;;;;;;;14.64;62.00;99609.66;3169612;28;19945;-73
2023/10/29 03:45:20;;;;;;;;;;;;;;;14.63;61.96;99620.22;3169838;28;19996;-73
2023/10/29 03:46:52;;;;;;;;;;;;;;;14.61;61.80;99619.47;3169712;28;19923;-73
2023/10/29 03:48:22;;;;;;;;;;;;;;;14.60;62.12;99618.66;3167175;28;20378;-73
2023/10/29 03:49:55;;;;;;;;;;;;;;;14.60;61.89;99623.88;3167803;28;19927;-73
2023/10/29 03:51:28;;;;;;;;;;;;;;;14.60;61.92;99623.88;3164082;28;19927;-73
2023/10/29 03:52:59;;;;;;;;;;;;;;;14.60;61.83;99625.69;3158091;28;19935;-73
2023/10/29 03:54:34;;;;;;;;;;;;;;;14.59;61.77;99630.06;3161545;28;19923;-73
2023/10/29 03:56:05;;;;;;;;;;;;;;;14.58;61.74;99633.63;3169217;28;19923;-73
2023/10/29 03:57:36;;;;;;;;;;;;;;;14.57;61.88;99629.31;3165882;28;19919;-73
2023/10/29 03:59:08;;;;;;;;;;;;;;;14.55;61.63;99629.44;3169672;28;20249;-73
2023/10/29 04:00:40;;;;;;;;;;;;;;;14.55;61.75;99633.81;3169304;28;19924;-73
2023/10/29 04:02:11;;;;;;;;;;;;;;;14.53;61.84;99638.34;3156392;28;20127;-73
2023/10/29 04:03:43;;;;;;;;;;;;;;;14.49;61.72;99635.06;3169904;28;19919;-73
2023/10/29 04:05:14;;;;;;;;;;;;;;;14.46;61.78;99634.38;3161662;28;19923;-73
2023/10/29 04:06:46;;;;;;;;;;;;;;;14.42;62.02;99635.53;3165182;28;19974;-73
2023/10/29 04:08:16;;;;;;;;;;;;;;;14.40;61.77;99632.16;3167596;28;20349;-73
2023/10/29 04:09:49;;;;;;;;;;;;;;;14.37;61.80;99632.34;3169595;28;19926;-73
2023/10/29 04:11:20;;;;;;;;;;;;;;;14.36;61.87;99638.53;3169709;28;20293;-73
2023/10/29 04:12:51;;;;;;;;;;;;;;;14.36;61.75;99638.53;3169586;28;19926;-73
2023/10/29 04:14:22;;;;;;;;;;;;;;;14.36;62.08;99634.13;3169399;28;19920;-72
2023/10/29 04:15:53;;;;;;;;;;;;;;;14.36;61.87;99638.53;3169296;28;19924;-72
2023/10/29 04:17:24;;;;;;;;;;;;;;;14.35;61.82;99635.09;3170061;28;20340;-73
2023/10/29 04:18:56;;;;;;;;;;;;;;;14.35;61.90;99635.09;3171934;28;19956;-72
2023/10/29 04:20:27;;;;;;;;;;;;;;;14.34;61.68;99638.63;3172167;28;20324;-73
2023/10/29 04:21:58;;;;;;;;;;;;;;;14.34;61.77;99636.00;3154455;28;19920;-73
2023/10/29 04:23:29;;;;;;;;;;;;;;;14.32;61.71;99633.50;3162101;28;20394;-72
2023/10/29 04:25:02;;;;;;;;;;;;;;;14.31;61.85;99644.06;3164198;28;19940;-73
2023/10/29 04:26:32;;;;;;;;;;;;;;;14.29;61.77;99645.94;3171953;28;19977;-73
2023/10/29 04:28:04;;;;;;;;;;;;;;;14.27;61.73;99646.03;3171520;28;20010;-73
2023/10/29 04:29:35;;;;;;;;;;;;;;;14.26;61.89;99636.50;3171658;28;19928;-72
2023/10/29 04:31:07;;;;;;;;;;;;;;;14.25;61.81;99641.81;3171004;28;19931;-73
2023/10/29 04:32:37;;;;;;;;;;;;;;;14.26;61.58;99643.53;3171778;28;19920;-72
2023/10/29 04:34:09;;;;;;;;;;;;;;;14.25;61.82;99640.03;3171644;28;19919;-73
2023/10/29 04:35:39;;;;;;;;;;;;;;;14.21;61.73;99641.19;3167137;28;19973;-73
2023/10/29 04:37:11;;;;;;;;;;;;;;;14.19;61.97;99637.81;3170532;28;20006;-72
2023/10/29 04:38:42;;;;;;;;;;;;;;;14.17;61.94;99638.84;3171781;28;19920;-73
2023/10/29 04:40:15;;;;;;;;;;;;;;;14.15;61.88;99635.50;3171774;28;19923;-73
2023/10/29 04:41:46;;;;;;;;;;;;;;;14.17;61.74;99642.31;3156399;28;19924;-73
2023/10/29 04:43:17;;;;;;;;;;;;;;;14.18;61.68;99656.25;3164764;28;20437;-72
2023/10/29 04:44:49;;;;;;;;;;;;;;;14.18;61.90;99654.47;3171423;28;19923;-73
2023/10/29 04:46:19;;;;;;;;;;;;;;;14.19;61.57;99660.53;3171170;28;19924;-73
2023/10/29 04:47:51;;;;;;;;;;;;;;;14.18;61.73;99666.72;3170588;28;19919;-75
2023/10/29 04:49:21;;;;;;;;;;;;;;;14.17;61.61;99668.50;3167633;28;19927;-74
2023/10/29 04:50:53;;;;;;;;;;;;;;;14.18;61.60;99671.97;3167230;27;19924;-73
2023/10/29 04:52:24;;;;;;;;;;;;;;;14.16;61.68;99677.28;3154761;28;20041;-74
2023/10/29 04:53:55;;;;;;;;;;;;;;;14.13;61.59;99680.09;3158399;28;19931;-72
2023/10/29 04:55:27;;;;;;;;;;;;;;;14.09;61.72;99679.44;3170811;28;19927;-73
2023/10/29 04:56:59;;;;;;;;;;;;;;;14.06;62.13;99684.88;3167004;28;19920;-74
2023/10/29 04:58:31;;;;;;;;;;;;;;;13.75;62.11;99644.00;3160292;28;19939;-73
2023/10/29 05:00:04;;;;;;;;;;;;;;;13.98;62.06;99691.50;3171624;28;19926;-74
2023/10/29 05:01:36;;;;;;;;;;;;;;;13.93;62.33;99688.31;3160295;28;19920;-73
2023/10/29 05:03:07;;;;;;;;;;;;;;;13.94;62.14;99688.25;3170706;28;19919;-74
2023/10/29 05:04:38;;;;;;;;;;;;;;;13.95;62.18;99679.44;3165116;28;19920;-73
2023/10/29 05:06:17;;;;;;;;;;;;;;;13.96;62.16;99680.28;3169230;28;20331;-74
2023/10/29 05:07:48;;;;;;;;;;;;;;;14.00;61.91;99679.19;3170972;28;19923;-74
2023/10/29 05:09:19;;;;;;;;;;;;;;;14.02;62.01;99690.38;3171327;28;19988;-73
2023/10/29 05:10:51;;;;;;;;;;;;;;;14.04;61.81;99689.34;3171543;28;19931;-74
2023/10/29 05:12:23;;;;;;;;;;;;;;;14.07;61.62;99693.56;3171197;28;19920;-74
2023/10/29 05:13:53;;;;;;;;;;;;;;;14.09;61.82;99691.69;3170661;28;19924;-73
2023/10/29 05:15:25;;;;;;;;;;;;;;;14.10;61.51;99691.59;3171136;28;19920;-74
2023/10/29 05:16:57;;;;;;;;;;;;;;;14.14;61.68;99694.03;3171258;28;19920;-74
2023/10/29 05:18:28;;;;;;;;;;;;;;;14.15;61.58;99695.72;3171173;28;19953;-73
2023/10/29 05:19:59;;;;;;;;;;;;;;;14.14;61.48;99697.50;3167014;28;19935;-73
2023/10/29 05:21:30;;;;;;;;;;;;;;;14.13;61.74;99698.41;3164318;28;19947;-74
2023/10/29 05:23:02;;;;;;;;;;;;;;;14.14;61.73;99704.50;3155108;28;19924;-73
2023/10/29 05:24:32;;;;;;;;;;;;;;;14.11;61.68;99703.78;3161072;28;19920;-73
2023/10/29 05:26:05;;;;;;;;;;;;;;;14.11;61.64;99705.56;3171605;28;20289;-74
2023/10/29 05:27:36;;;;;;;;;;;;;;;14.11;61.91;99702.94;3171248;28;19924;-74
2023/10/29 05:29:08;;;;;;;;;;;;;;;14.13;61.91;99710.69;3171299;28;19920;-73
2023/10/29 05:30:39;;;;;;;;;;;;;;;14.18;61.73;99706.00;3171161;28;19931;-74
2023/10/29 05:32:10;;;;;;;;;;;;;;;14.23;61.44;99702.16;3170128;28;19924;-72
2023/10/29 05:33:41;;;;;;;;;;;;;;;14.31;61.33;99704.31;3170080;28;20380;-74
2023/10/29 05:35:12;;;;;;;;;;;;;;;14.40;61.19;99713.38;3168186;28;20024;-74
2023/10/29 05:36:44;;;;;;;;;;;;;;;14.47;61.21;99715.53;3170816;28;19934;-74
2023/10/29 05:38:14;;;;;;;;;;;;;;;14.57;61.22;99721.88;3170833;28;19943;-73
2023/10/29 05:39:46;;;;;;;;;;;;;;;14.68;61.15;99717.75;3171054;28;20498;-73
2023/10/29 05:41:18;;;;;;;;;;;;;;;14.78;60.86;99724.91;3163742;28;19920;-73
2023/10/29 05:42:49;;;;;;;;;;;;;;;14.91;60.65;99732.88;3155884;28;19978;-73
2023/10/29 05:44:20;;;;;;;;;;;;;;;15.04;60.53;99726.81;3170857;28;20443;-73
2023/10/29 05:45:51;;;;;;;;;;;;;;;15.17;60.16;99731.19;3170834;28;19932;-73
2023/10/29 05:47:22;;;;;;;;;;;;;;;15.26;60.11;99724.47;3170088;28;20321;-73
2023/10/29 05:48:54;;;;;;;;;;;;;;;15.33;59.75;99727.56;3166062;28;20057;-74
2023/10/29 05:50:24;;;;;;;;;;;;;;;15.40;59.81;99728.81;3170698;28;20408;-72
2023/10/29 05:51:56;;;;;;;;;;;;;;;15.49;59.68;99725.56;3158424;28;19927;-73
2023/10/29 05:53:26;;;;;;;;;;;;;;;15.60;59.40;99730.13;3156007;28;19927;-73
2023/10/29 05:54:58;;;;;;;;;;;;;;;15.70;59.28;99728.56;3168539;28;19932;-73
2023/10/29 05:56:30;;;;;;;;;;;;;;;15.83;59.12;99723.34;3169278;28;19920;-73
2023/10/29 05:58:01;;;;;;;;;;;;;;;15.97;58.66;99733.72;3160253;28;20011;-73
2023/10/29 05:59:32;;;;;;;;;;;;;;;16.09;58.60;99740.78;3167199;28;19920;-73
2023/10/29 06:01:03;;;;;;;;;;;;;;;16.25;58.44;99750.22;3164930;28;19920;-73
2023/10/29 06:02:34;;;;;;;;;;;;;;;16.37;58.18;99749.38;3165830;28;19923;-74
2023/10/29 06:04:06;;;;;;;;;;;;;;;16.54;57.80;99756.91;3164846;28;19919;-73
2023/10/29 06:05:37;;;;;;;;;;;;;;;16.70;57.68;99766.34;3164395;28;19927;-73
2023/10/29 06:07:08;;;;;;;;;;;;;;;16.83;57.25;99765.41;3170016;28;20046;-73
2023/10/29 06:08:40;;;;;;;;;;;;;;;16.96;57.06;99770.63;3170321;28;20293;-73
2023/10/29 06:10:11;;;;;;;;;;;;;;;17.10;56.67;99774.06;3170581;28;19927;-74
2023/10/29 06:11:44;;;;;;;;;;;;;;;17.26;56.57;99772.78;3170200;28;19928;-73
2023/10/29 06:13:15;;;;;;;;;;;;;;;17.44;56.21;99775.88;3170349;28;19926;-73
2023/10/29 06:14:47;;;;;;;;;;;;;;;17.64;55.71;99768.28;3170319;28;19920;-73
2023/10/29 06:16:17;;;;;;;;;;;;;;;17.87;55.37;99769.22;3170364;28;19927;-74
2023/10/29 06:17:49;;;;;;;;;;;;;;;18.11;55.10;99772.59;3166726;28;20468;-73
2023/10/29 06:19:19;;;;;;;;;;;;;;;18.38;54.42;99772.25;3170995;28;19969;-73
2023/10/29 06:20:53;;;;;;;;;;;;;;;18.65;53.86;99774.53;3170322;28;19920;-74
2023/10/29 06:22:23;;;;;;;;;;;;;;;18.94;53.00;99773.22;3153096;28;19973;-73
2023/10/29 06:23:55;;;;;;;;;;;;;;;19.17;52.15;99774.81;3158837;28;19924;-74
2023/10/29 06:25:26;;;;;;;;;;;;;;;19.38;51.56;99774.03;3167191;28;20401;-74
2023/10/29 06:26:59;;;;;;;;;;;;;;;19.64;50.79;99775.34;3170122;28;19939;-74
2023/10/29 06:28:30;;;;;;;;;;;;;;;19.88;50.10;99779.59;3170382;28;19959;-73
2023/10/29 06:30:01;;;;;;;;;;;;;;;20.12;49.45;99785.44;3169847;28;19924;-73
2023/10/29 06:31:33;;;;;;;;;;;;;;;20.38;49.27;99784.97;3169805;28;20316;-74
2023/10/29 06:33:04;;;;;;;;;;;;;;;20.17;48.87;99708.34;3165524;28;19972;-74
2023/10/29 06:34:35;;;;;;;;;;;;;;;20.88;48.17;99793.00;3169981;28;19935;-73
2023/10/29 06:36:07;;;;;;;;;;;;;;;21.11;48.23;99788.31;3170204;28;19971;-74
2023/10/29 06:37:37;;;;;;;;;;;;;;;21.33;47.50;99797.81;3170958;28;19919;-74
2023/10/29 06:39:09;;;;;;;;;;;;;;;21.49;47.14;99798.13;3171804;28;19923;-73
2023/10/29 06:40:39;;;;;;;;;;;;;;;21.62;46.94;99799.66;3170567;28;19927;-73
2023/10/29 06:42:12;;;;;;;;;;;;;;;21.75;46.81;99803.72;3148661;28;19920;-74
2023/10/29 06:43:43;;;;;;;;;;;;;;;21.88;46.89;99803.41;3170192;28;19954;-73
2023/10/29 06:45:15;;;;;;;;;;;;;;;22.02;46.90;99797.66;3170273;28;19923;-76
2023/10/29 06:46:46;;;;;;;;;;;;;;;22.16;46.88;99799.03;3168203;28;19931;-74
2023/10/29 06:48:18;;;;;;;;;;;;;;;22.48;47.18;99803.16;3167504;28;19920;-74
2023/10/29 06:49:50;;;;;;;;;;;;;;;23.05;46.71;99800.38;3167670;28;20105;-74
2023/10/29 06:51:21;;;;;;;;;;;;;;;23.78;45.56;99803.75;3165271;28;20014;-75
2023/10/29 06:52:52;;;;;;;;;;;;;;;24.63;43.72;99803.13;3156340;28;20324;-72
2023/10/29 06:54:24;;;;;;;;;;;;;;;25.40;42.68;99807.38;3162687;28;19923;-74
2023/10/29 06:55:55;;;;;;;;;;;;;;;26.14;40.92;99803.88;3170426;28;19920;-75
2023/10/29 06:57:27;;;;;;;;;;;;;;;26.93;39.88;99796.81;3164170;28;20049;-74
2023/10/29 06:58:58;;;;;;;;;;;;;;;27.77;38.47;99802.25;3163530;28;19919;-75
2023/10/29 07:00:31;;;;;;;;;;;;;;;28.50;37.46;99800.75;3170187;28;19928;-75
2023/10/29 07:02:02;;;;;;;;;;;;;;;29.13;36.71;99798.44;3165674;28;19924;-73
2023/10/29 07:03:33;;;;;;;;;;;;;;;29.50;35.60;99797.41;3170260;28;20388;-73
2023/10/29 07:05:04;;;;;;;;;;;;;;;29.85;35.15;99798.34;3163343;28;19931;-74
2023/10/29 07:06:36;;;;;;;;;;;;;;;30.20;34.51;99803.75;3169992;28;19923;-74
2023/10/29 07:08:06;;;;;;;;;;;;;;;30.56;33.93;99792.84;3170060;28;20312;-74
2023/10/29 07:09:38;;;;;;;;;;;;;;;30.86;33.50;99792.56;3170061;28;19919;-74
2023/10/29 07:11:09;;;;;;;;;;;;;;;31.15;32.86;99796.81;3170390;28;20648;-74
2023/10/29 07:12:42;;;;;;;;;;;;;;;31.40;33.14;99790.88;3159167;28;19924;-74
2023/10/29 07:14:12;;;;;;;;;;;;;;;31.50;32.39;99793.97;3169582;28;19919;-74
2023/10/29 07:15:44;;;;;;;;;;;;;;;31.49;32.09;99798.53;3168806;28;19924;-74
2023/10/29 07:17:15;;;;;;;;;;;;;;;31.47;32.54;99795.25;3167666;28;19926;-74
2023/10/29 07:18:46;;;;;;;;;;;;;;;31.42;32.33;99797.72;3169516;28;20343;-74
2023/10/29 07:20:18;;;;;;;;;;;;;;;31.28;33.00;99796.81;3169855;28;19920;-75
2023/10/29 07:21:48;;;;;;;;;;;;;;;31.23;32.95;99795.75;3170420;28;19920;-74
2023/10/29 07:23:20;;;;;;;;;;;;;;;31.12;33.00;99793.66;3165200;28;19984;-74
2023/10/29 07:24:51;;;;;;;;;;;;;;;31.17;33.00;99799.28;3156724;28;19926;-74
2023/10/29 07:26:22;;;;;;;;;;;;;;;31.20;32.69;99794.31;3163015;28;20393;-74
2023/10/29 07:27:54;;;;;;;;;;;;;;;31.17;32.36;99799.28;3169859;28;19920;-74
2023/10/29 07:29:26;;;;;;;;;;;;;;;31.05;31.36;99793.66;3169718;28;20311;-74
2023/10/29 07:30:56;;;;;;;;;;;;;;;31.30;30.93;99796.63;3163168;28;20539;-75
2023/10/29 07:32:28;;;;;;;;;;;;;;;31.47;31.03;99794.38;3170141;28;19966;-74
2023/10/29 07:33:58;;;;;;;;;;;;;;;31.77;30.24;99797.53;3169997;28;19923;-73
2023/10/29 07:35:30;;;;;;;;;;;;;;;31.96;29.42;99793.19;3170148;28;19928;-76
2023/10/29 07:37:00;;;;;;;;;;;;;;;32.34;29.82;99797.88;3169413;28;19964;-73
2023/10/29 07:38:32;;;;;;;;;;;;;;;32.68;28.18;99785.16;3169399;28;19968;-75
2023/10/29 07:40:03;;;;;;;;;;;;;;;32.95;28.79;99789.41;3170140;28;19920;-73
2023/10/29 07:41:34;;;;;;;;;;;;;;;33.37;28.73;99797.06;3158236;28;19925;-74
2023/10/29 07:43:07;;;;;;;;;;;;;;;33.83;28.34;99798.59;3159012;28;20002;-73
2023/10/29 07:44:38;;;;;;;;;;;;;;;34.14;27.65;99801.22;3170118;28;19920;-74
2023/10/29 07:46:09;;;;;;;;;;;;;;;34.10;27.61;99801.91;3165410;28;19952;-74
2023/10/29 07:47:40;;;;;;;;;;;;;;;34.02;26.65;99800.28;3168664;28;19924;-74
2023/10/29 07:49:11;;;;;;;;;;;;;;;34.10;27.17;99800.00;3163644;28;20246;-74
2023/10/29 07:50:49;;;;;;;;;;;;;;;34.31;27.12;99804.19;3159939;28;19949;-74
2023/10/29 07:52:21;;;;;;;;;;;;;;;34.54;26.94;99800.81;3171197;28;19938;-74
2023/10/29 07:53:51;;;;;;;;;;;;;;;34.70;26.48;99801.25;3164065;28;19920;-74
2023/10/29 07:55:23;;;;;;;;;;;;;;;34.83;26.37;99803.81;3162215;28;19930;-74
2023/10/29 07:56:53;;;;;;;;;;;;;;;34.94;26.63;99804.91;3167719;28;19920;-75